Time;durP1;ratioP1;P1;durP2;ratioP2;P2;SDS_P1;SDS_P2;PMS_P1;PMS_P2;Temp;Humidity;BMP_temperature;BMP_pressure;BME280_temperature;BME280_humidity;BME280_pressure;Samples;Min_cycle;Max_cycle;Signal;HPM_P1;HPM_P2
2022/02/24 00:01:30;;;;;;;10.07;6.43;;;;;;;9.23;54.25;100526.19;10316473;28;20293;-64
2022/02/24 00:06:32;;;;;;;9.13;6.07;;;;;;;9.10;54.32;100502.34;10312581;28;20054;-63
2022/02/24 00:11:35;;;;;;;8.88;6.13;;;;;;;9.14;54.94;100522.38;10315307;28;20054;-64
2022/02/24 00:16:37;;;;;;;11.43;7.03;;;;;;;9.09;55.07;100520.06;10314744;28;20413;-63
2022/02/24 00:21:38;;;;;;;7.60;6.35;;;;;;;9.02;55.56;100510.81;10312808;28;20058;-62
2022/02/24 00:26:40;;;;;;;10.32;7.32;;;;;;;8.97;55.56;100505.81;10314467;28;20052;-64
2022/02/24 00:31:42;;;;;;;13.38;7.00;;;;;;;8.95;55.97;100505.09;10313967;28;20052;-65
2022/02/24 00:36:43;;;;;;;10.18;7.05;;;;;;;8.83;56.28;100490.03;10317101;28;20051;-64
2022/02/24 00:41:45;;;;;;;12.52;7.28;;;;;;;8.83;56.38;100501.47;10312296;28;20138;-64
2022/02/24 00:46:47;;;;;;;11.82;7.55;;;;;;;8.80;56.74;100491.06;10318898;28;20575;-63
2022/02/24 00:51:48;;;;;;;9.18;6.68;;;;;;;8.81;56.81;100487.47;10319338;28;20054;-63
2022/02/24 00:56:51;;;;;;;10.25;6.80;;;;;;;8.80;57.21;100480.47;10317579;28;20145;-64
2022/02/24 01:01:52;;;;;;;8.63;6.68;;;;;;;8.81;57.30;100479.50;10310459;28;20148;-64
2022/02/24 01:06:54;;;;;;;7.70;5.85;;;;;;;8.80;57.33;100472.50;10313804;28;20102;-64
2022/02/24 01:11:55;;;;;;;8.10;5.22;;;;;;;8.84;56.92;100462.50;10316345;28;20086;-63
2022/02/24 01:16:57;;;;;;;8.55;5.35;;;;;;;8.72;57.04;100444.78;10317251;28;20046;-65
2022/02/24 01:21:58;;;;;;;7.93;5.32;;;;;;;8.77;57.56;100445.34;10325362;28;20054;-64
2022/02/24 01:27:00;;;;;;;9.35;5.70;;;;;;;8.84;57.00;100442.13;10315317;28;20055;-63
2022/02/24 01:32:01;;;;;;;7.68;5.45;;;;;;;8.85;57.16;100429.69;10327971;28;20081;-64
2022/02/24 01:37:03;;;;;;;9.00;5.78;;;;;;;8.73;58.31;100428.75;10335696;28;20530;-68
2022/02/24 01:42:05;;;;;;;8.40;5.65;;;;;;;8.63;58.51;100417.06;10311648;28;20133;-64
2022/02/24 01:47:06;;;;;;;7.53;5.68;;;;;;;8.63;58.89;100422.38;10311476;28;20131;-63
2022/02/24 01:52:11;;;;;;;9.10;5.95;;;;;;;8.66;59.18;100398.28;10316747;28;20120;-63
2022/02/24 01:57:12;;;;;;;8.15;5.65;;;;;;;8.69;58.33;100403.38;10311803;28;20137;-64
2022/02/24 02:02:14;;;;;;;13.30;6.22;;;;;;;8.38;59.86;100378.97;10323261;28;20095;-64
2022/02/24 02:07:17;;;;;;;6.22;5.53;;;;;;;8.53;59.51;100385.03;10328550;28;20078;-63
2022/02/24 02:12:19;;;;;;;8.75;5.57;;;;;;;8.61;59.90;100390.66;10325358;28;20129;-62
2022/02/24 02:17:21;;;;;;;10.27;5.72;;;;;;;8.40;60.53;100368.25;10326237;28;20137;-63
2022/02/24 02:22:22;;;;;;;9.18;5.88;;;;;;;8.32;60.87;100366.13;10320540;28;20679;-63
2022/02/24 02:27:24;;;;;;;8.98;5.63;;;;;;;8.32;60.96;100355.53;10321818;28;20549;-65
2022/02/24 02:32:26;;;;;;;8.27;5.50;;;;;;;8.19;61.91;100359.97;10324118;28;20058;-65
2022/02/24 02:37:28;;;;;;;6.18;5.05;;;;;;;8.30;61.94;100352.97;10326336;28;20060;-65
2022/02/24 02:42:29;;;;;;;6.75;5.20;;;;;;;8.22;61.81;100338.56;10323001;28;20082;-64
2022/02/24 02:47:31;;;;;;;8.85;6.13;;;;;;;8.27;62.29;100347.03;10326051;28;20807;-64
2022/02/24 02:52:32;;;;;;;7.90;5.65;;;;;;;8.39;61.69;100324.97;10326502;28;20141;-64
2022/02/24 02:57:34;;;;;;;8.50;5.20;;;;;;;8.61;61.40;100334.09;10323146;28;20057;-64
2022/02/24 03:02:36;;;;;;;8.63;6.07;;;;;;;8.60;61.30;100329.72;10319280;28;20058;-65
2022/02/24 03:07:38;;;;;;;8.88;5.45;;;;;;;8.76;60.79;100321.53;10324534;28;20042;-64
2022/02/24 03:12:40;;;;;;;9.07;5.47;;;;;;;8.74;61.08;100316.34;10316516;28;20133;-65
2022/02/24 03:17:47;;;;;;;9.15;5.18;;;;;;;8.70;61.40;100320.16;10317993;28;20053;-65
2022/02/24 03:22:48;;;;;;;8.55;5.00;;;;;;;8.64;61.41;100302.03;10320231;28;20141;-64
2022/02/24 03:27:50;;;;;;;9.32;5.63;;;;;;;8.69;61.57;100302.53;10319929;28;20051;-64
2022/02/24 03:32:51;;;;;;;6.63;5.07;;;;;;;8.79;61.50;100294.78;10311212;28;20189;-65
2022/02/24 03:37:52;;;;;;;6.53;4.80;;;;;;;8.69;61.43;100268.03;10313559;28;20125;-65
2022/02/24 03:42:54;;;;;;;8.57;5.32;;;;;;;8.69;61.53;100280.47;10315071;28;20401;-64
2022/02/24 03:47:56;;;;;;;7.25;4.60;;;;;;;8.59;62.15;100277.63;10314035;28;20524;-64
2022/02/24 03:52:57;;;;;;;8.57;5.20;;;;;;;8.36;62.57;100264.19;10318664;28;20124;-64
2022/02/24 03:57:59;;;;;;;6.60;5.13;;;;;;;8.35;62.88;100265.13;10314736;28;20056;-64
2022/02/24 04:03:00;;;;;;;7.93;5.28;;;;;;;8.26;63.51;100249.88;10314793;28;20050;-64
2022/02/24 04:08:02;;;;;;;7.57;6.25;;;;;;;8.25;64.18;100258.78;10313231;28;20057;-65
2022/02/24 04:13:03;;;;;;;8.07;4.95;;;;;;;8.19;64.27;100240.66;10311435;28;20509;-64
2022/02/24 04:18:05;;;;;;;9.40;5.70;;;;;;;8.22;64.16;100253.69;10311765;28;20054;-64
2022/02/24 04:23:06;;;;;;;8.05;5.80;;;;;;;8.26;64.03;100256.03;10317352;28;20666;-65
2022/02/24 04:28:08;;;;;;;8.43;6.47;;;;;;;8.11;65.26;100233.25;10314376;28;20437;-63
2022/02/24 04:33:09;;;;;;;9.70;6.60;;;;;;;8.08;65.28;100244.06;10318369;28;20058;-64
2022/02/24 04:38:11;;;;;;;9.82;6.38;;;;;;;7.93;65.81;100211.53;10315301;28;20045;-64
2022/02/24 04:43:13;;;;;;;10.20;6.85;;;;;;;7.92;66.12;100221.25;10312904;28;20088;-64
2022/02/24 04:48:15;;;;;;;9.15;6.47;;;;;;;7.97;66.51;100207.69;10319152;28;20054;-63
2022/02/24 04:53:17;;;;;;;7.88;5.50;;;;;;;7.98;66.51;100214.69;10315319;28;20050;-65
2022/02/24 04:58:18;;;;;;;7.10;6.28;;;;;;;8.07;66.17;100203.44;10315015;28;20532;-65
2022/02/24 05:03:20;;;;;;;8.05;5.93;;;;;;;8.17;66.15;100200.13;10313685;28;20053;-65
2022/02/24 05:08:21;;;;;;;9.27;6.95;;;;;;;8.13;66.40;100186.25;10314070;28;20049;-64
2022/02/24 05:13:23;;;;;;;11.85;6.63;;;;;;;8.09;66.89;100185.63;10310790;28;20057;-64
2022/02/24 05:18:24;;;;;;;9.68;6.20;;;;;;;8.08;66.99;100175.13;10309638;28;20077;-65
2022/02/24 05:23:26;;;;;;;9.93;6.53;;;;;;;8.11;67.30;100167.81;10313031;28;20467;-66
2022/02/24 05:28:27;;;;;;;7.50;6.70;;;;;;;8.22;66.61;100164.38;10313857;28;20129;-65
2022/02/24 05:33:30;;;;;;;8.57;6.15;;;;;;;8.11;67.14;100157.19;10314726;28;20061;-65
2022/02/24 05:38:32;;;;;;;12.18;6.95;;;;;;;8.12;67.04;100137.69;10312603;28;20061;-64
2022/02/24 05:43:33;;;;;;;10.57;6.90;;;;;;;8.11;67.27;100130.69;10318385;28;20058;-64
2022/02/24 05:48:35;;;;;;;9.70;7.18;;;;;;;8.10;68.07;100139.59;10313158;28;20049;-64
2022/02/24 05:53:37;;;;;;;10.68;6.68;;;;;;;8.03;67.76;100133.06;10312322;28;20065;-65
2022/02/24 05:58:39;;;;;;;10.55;7.90;;;;;;;7.98;68.27;100121.91;10311247;28;20050;-64
2022/02/24 06:03:40;;;;;;;9.70;7.03;;;;;;;8.17;67.99;100128.53;10301659;28;20333;-66
2022/02/24 06:08:42;;;;;;;10.75;6.72;;;;;;;8.14;67.61;100117.19;10307767;28;20050;-65
2022/02/24 06:13:43;;;;;;;9.43;7.45;;;;;;;8.18;67.79;100135.53;10305883;28;20141;-65
2022/02/24 06:18:45;;;;;;;9.90;7.22;;;;;;;8.15;67.94;100126.00;10308057;28;20052;-64
2022/02/24 06:23:46;;;;;;;8.25;6.68;;;;;;;8.11;68.12;100109.47;10304343;28;20288;-65
2022/02/24 06:28:48;;;;;;;11.45;7.55;;;;;;;8.32;68.23;100111.53;10305138;28;20120;-64
2022/02/24 06:33:49;;;;;;;11.70;7.50;;;;;;;8.28;68.44;100110.03;10311648;28;20128;-64
2022/02/24 06:38:50;;;;;;;10.75;7.10;;;;;;;8.27;67.86;100105.69;10320291;28;20402;-64
2022/02/24 06:43:53;;;;;;;10.25;6.82;;;;;;;8.29;67.95;100101.16;10307987;28;20056;-64
2022/02/24 06:48:54;;;;;;;9.27;7.38;;;;;;;8.34;67.66;100098.97;10311378;28;20065;-65
2022/02/24 06:53:56;;;;;;;9.02;7.15;;;;;;;8.38;68.63;100105.75;10307390;28;20081;-65
2022/02/24 06:58:57;;;;;;;8.98;7.03;;;;;;;8.42;68.36;100104.59;10308810;28;20740;-64
2022/02/24 07:03:59;;;;;;;7.85;6.65;;;;;;;8.31;68.67;100083.31;10320474;28;20049;-64
2022/02/24 07:09:00;;;;;;;10.30;6.80;;;;;;;8.42;68.72;100082.50;10343850;28;20142;-63
2022/02/24 07:14:02;;;;;;;11.95;7.63;;;;;;;8.26;68.59;100035.06;10319366;28;20054;-64
2022/02/24 07:19:04;;;;;;;8.13;6.97;;;;;;;8.50;69.42;100077.53;10321465;28;20057;-66
2022/02/24 07:24:06;;;;;;;11.10;6.85;;;;;;;8.61;68.42;100074.06;10316176;28;20061;-64
2022/02/24 07:29:07;;;;;;;10.40;6.45;;;;;;;8.69;68.34;100076.97;10315068;28;20045;-63
2022/02/24 07:34:09;;;;;;;7.97;6.78;;;;;;;8.77;67.80;100085.22;10312261;28;20085;-63
2022/02/24 07:39:12;;;;;;;12.55;7.50;;;;;;;8.78;68.26;100078.94;10315449;28;20079;-62
2022/02/24 07:44:14;;;;;;;8.35;7.15;;;;;;;8.80;68.34;100066.41;10318867;28;20063;-61
2022/02/24 07:49:16;;;;;;;11.25;7.88;;;;;;;8.95;67.78;100067.03;10321888;28;20054;-63
2022/02/24 07:54:19;;;;;;;9.85;7.45;;;;;;;8.95;67.96;100034.34;10317924;28;20054;-61
2022/02/24 07:59:20;;;;;;;11.25;9.23;;;;;;;8.94;67.45;100033.47;10310372;28;20064;-60
2022/02/24 08:04:22;;;;;;;12.25;7.13;;;;;;;9.10;67.75;100049.06;10311788;28;20049;-61
2022/02/24 08:09:23;;;;;;;8.65;6.93;;;;;;;8.92;68.11;100032.75;10311060;28;20081;-60
2022/02/24 08:14:24;;;;;;;9.48;6.93;;;;;;;8.96;68.30;100036.00;10317039;28;20060;-60
2022/02/24 08:19:26;;;;;;;9.10;6.68;;;;;;;8.95;68.64;100029.03;10308065;28;20140;-60
2022/02/24 08:24:27;;;;;;;9.98;6.75;;;;;;;9.02;68.57;100030.22;10318286;28;20602;-61
2022/02/24 08:29:29;;;;;;;10.30;7.68;;;;;;;9.00;68.94;100024.19;10304356;28;20053;-60
2022/02/24 08:34:30;;;;;;;11.68;7.38;;;;;;;9.06;68.71;100014.91;10311756;28;20503;-59
2022/02/24 08:39:32;;;;;;;8.45;7.03;;;;;;;9.11;68.54;100018.91;10309701;28;20058;-62
2022/02/24 08:44:33;;;;;;;10.98;7.78;;;;;;;9.11;68.46;100002.13;10309205;28;20469;-65
2022/02/24 08:49:35;;;;;;;9.73;6.80;;;;;;;9.30;68.29;99993.56;10323426;28;20050;-63
2022/02/24 08:54:36;;;;;;;9.43;7.30;;;;;;;9.44;67.68;99990.63;10308427;28;20053;-64
2022/02/24 08:59:38;;;;;;;8.35;6.85;;;;;;;9.38;68.16;99989.31;10299944;28;21135;-63
2022/02/24 09:04:40;;;;;;;10.75;6.65;;;;;;;9.26;67.98;99974.34;10304104;28;20880;-64
2022/02/24 09:09:42;;;;;;;12.80;7.75;;;;;;;9.15;68.28;99940.69;10312350;28;20410;-63
2022/02/24 09:14:44;;;;;;;9.80;6.20;;;;;;;9.51;67.32;99961.75;10303229;28;20185;-64
2022/02/24 09:19:46;;;;;;;7.68;6.90;;;;;;;9.73;66.89;99940.44;10312002;28;20636;-63
2022/02/24 09:24:47;;;;;;;12.85;6.60;;;;;;;9.73;66.75;99934.28;10305601;28;20690;-63
2022/02/24 09:29:50;;;;;;;9.43;6.47;;;;;;;9.91;65.98;99935.44;10301820;28;20070;-64
2022/02/24 09:34:52;;;;;;;11.10;6.25;;;;;;;9.91;65.91;99922.13;10302469;28;20078;-64
2022/02/24 09:39:54;;;;;;;8.82;6.88;;;;;;;9.68;66.22;99888.63;10309858;28;20057;-63
2022/02/24 09:44:56;;;;;;;7.55;6.65;;;;;;;10.04;65.64;99915.78;10311366;28;20164;-63
2022/02/24 09:49:59;;;;;;;10.73;7.07;;;;;;;10.17;64.86;99905.81;10303608;28;20501;-66
2022/02/24 09:55:01;;;;;;;9.52;6.28;;;;;;;10.48;64.66;99897.94;10330939;28;20195;-65
2022/02/24 10:00:04;;;;;;;8.68;6.45;;;;;;;10.70;63.60;99899.56;10336699;28;20081;-64
2022/02/24 10:05:12;;;;;;;7.97;6.00;;;;;;;10.89;62.93;99896.13;10338457;28;20053;-63
2022/02/24 10:10:32;;;;;;;7.60;5.47;;;;;;;10.85;62.50;99889.38;10335239;28;20532;-63
2022/02/24 10:15:38;;;;;;;6.38;5.68;;;;;;;10.99;62.24;99877.56;10327040;28;20151;-63
2022/02/24 10:20:45;;;;;;;6.88;5.30;;;;;;;10.99;62.13;99850.06;10313454;28;20137;-63
2022/02/24 10:25:50;;;;;;;7.55;5.72;;;;;;;11.03;62.10;99848.81;10325745;28;20545;-63
2022/02/24 10:30:51;;;;;;;6.57;5.00;;;;;;;11.28;61.15;99837.63;10325288;28;20060;-63
2022/02/24 10:35:56;;;;;;;7.57;5.00;;;;;;;11.82;59.38;99830.06;10313125;28;20054;-62
2022/02/24 10:40:57;;;;;;;6.28;5.30;;;;;;;11.78;59.01;99833.16;10333722;28;20076;-63
2022/02/24 10:46:00;;;;;;;6.95;4.53;;;;;;;11.67;59.18;99821.66;10331282;28;20057;-63
2022/02/24 10:51:05;;;;;;;4.97;4.25;;;;;;;11.78;58.76;99798.50;10332326;28;20060;-62
2022/02/24 10:56:09;;;;;;;5.93;3.97;;;;;;;12.19;57.72;99778.66;10343514;28;20058;-63
2022/02/24 11:01:12;;;;;;;5.30;4.60;;;;;;;12.80;56.17;99767.53;10345294;28;20058;-63
2022/02/24 11:06:14;;;;;;;7.15;5.10;;;;;;;13.50;53.81;99783.81;10340407;28;20375;-64
2022/02/24 11:11:19;;;;;;;5.28;4.57;;;;;;;13.89;53.40;99766.56;10342306;28;20117;-63
2022/02/24 11:16:20;;;;;;;;;;;;;;;13.71;52.52;99764.75;10343631;28;20062;-63
2022/02/24 11:21:23;;;;;;;5.80;4.18;;;;;;;12.89;54.68;99754.13;10341217;28;20443;-63
2022/02/24 11:26:34;;;;;;;6.03;4.10;;;;;;;12.36;56.19;99733.50;10342229;28;20053;-64
2022/02/24 11:31:47;;;;;;;6.15;4.30;;;;;;;12.26;56.88;99714.84;10339855;28;20053;-63
2022/02/24 11:36:49;;;;;;;6.70;4.10;;;;;;;11.99;58.02;99711.19;10310615;28;20145;-63
2022/02/24 11:41:52;;;;;;;4.93;4.22;;;;;;;11.86;58.82;99699.97;10341173;28;20530;-63
2022/02/24 11:47:02;;;;;;;9.55;4.18;;;;;;;11.75;59.29;99681.47;10345654;28;20056;-60
2022/02/24 11:52:18;;;;;;;6.53;4.65;;;;;;;11.73;59.40;99670.13;10343119;28;20173;-62
2022/02/24 11:57:29;;;;;;;4.15;3.70;;;;;;;11.83;59.26;99649.59;10345464;28;20129;-60
2022/02/24 12:02:41;;;;;;;10.85;4.60;;;;;;;12.11;58.68;99636.28;10340738;28;20049;-60
2022/02/24 12:08:06;;;;;;;6.47;4.13;;;;;;;12.73;56.75;99623.94;10332398;28;20520;-61
2022/02/24 12:13:26;;;;;;;6.43;3.63;;;;;;;12.75;56.66;99629.13;10340785;28;20752;-61
2022/02/24 12:18:39;;;;;;;4.03;3.58;;;;;;;13.19;55.24;99610.44;10340945;28;20058;-60
2022/02/24 12:23:47;;;;;;;4.93;3.42;;;;;;;13.57;54.34;99595.03;10340631;28;20544;-61
2022/02/24 12:28:48;;;;;;;4.90;3.03;;;;;;;13.01;55.50;99597.13;10338146;28;20050;-61
2022/02/24 12:33:50;;;;;;;5.40;2.97;;;;;;;12.99;55.89;99583.09;10343475;28;20058;-60
2022/02/24 12:38:51;;;;;;;6.05;2.50;;;;;;;13.33;54.74;99590.34;10345202;28;20495;-61
2022/02/24 12:43:52;;;;;;;5.07;2.65;;;;;;;13.31;54.74;99584.31;10340941;28;20095;-61
2022/02/24 12:48:55;;;;;;;4.45;2.40;;;;;;;12.78;55.77;99590.59;10341142;28;20568;-62
2022/02/24 12:53:58;;;;;;;3.95;2.33;;;;;;;12.29;57.21;99586.47;10328025;28;20080;-62
2022/02/24 12:58:59;;;;;;;4.22;2.65;;;;;;;12.24;57.64;99561.25;10356247;28;20148;-61
2022/02/24 13:04:00;;;;;;;3.50;2.20;;;;;;;12.06;58.38;99554.03;10373209;28;20316;-62
2022/02/24 13:14:22;;;;;;;3.13;1.98;;;;;;;12.11;57.86;99566.94;10311200;28;20104;-62
2022/02/24 13:19:26;;;;;;;4.28;1.38;;;;;;;12.03;57.49;99560.50;10315957;28;20053;-63
2022/02/24 13:24:37;;;;;;;3.13;1.05;;;;;;;12.13;56.47;99533.78;10286379;28;20155;-60
2022/02/24 13:29:40;;;;;;;2.60;1.05;;;;;;;12.04;56.19;99529.38;10299481;28;20058;-62
2022/02/24 13:34:47;;;;;;;5.57;1.63;;;;;;;11.76;56.48;99484.00;10306840;28;20054;-63
2022/02/24 13:39:49;;;;;;;3.15;1.60;;;;;;;11.89;57.53;99518.34;10310876;28;20561;-63
2022/02/24 13:44:52;;;;;;;4.47;1.58;;;;;;;11.72;59.46;99519.97;10302784;28;20046;-62
2022/02/24 13:50:06;;;;;;;3.78;1.80;;;;;;;12.50;57.54;99524.78;10308978;28;20492;-62
2022/02/24 13:55:11;;;;;;;2.92;1.85;;;;;;;12.40;57.34;99518.69;10306100;28;20050;-62
2022/02/24 14:00:13;;;;;;;2.58;1.65;;;;;;;11.92;58.89;99504.69;10306892;28;20057;-62
2022/02/24 14:05:16;;;;;;;4.10;1.58;;;;;;;11.62;61.89;99552.00;10308059;28;20157;-66
2022/02/24 14:10:19;;;;;;;2.58;1.70;;;;;;;11.66;64.89;99536.53;10304824;28;20117;-62
2022/02/24 14:15:21;;;;;;;2.75;1.58;;;;;;;11.76;64.22;99533.84;10302861;28;20053;-62
2022/02/24 14:20:24;;;;;;;3.13;1.85;;;;;;;11.71;63.61;99530.78;10303370;28;20069;-62
2022/02/24 14:25:26;;;;;;;3.60;1.20;;;;;;;11.55;62.09;99518.09;10313241;28;20604;-63
2022/02/24 14:30:27;;;;;;;2.30;1.20;;;;;;;11.44;61.37;99513.78;10307163;28;20242;-63
2022/02/24 14:35:29;;;;;;;3.53;1.00;;;;;;;11.54;61.31;99517.25;10311394;28;21133;-62
2022/02/24 14:40:31;;;;;;;2.83;1.05;;;;;;;11.73;59.77;99502.97;10305405;28;20149;-62
2022/02/24 14:45:33;;;;;;;1.77;0.93;;;;;;;14.37;51.71;99508.13;10308729;28;20053;-62
2022/02/24 14:50:35;;;;;;;1.35;0.75;;;;;;;15.77;46.54;99498.97;10328952;28;20056;-62
2022/02/24 14:55:39;;;;;;;1.50;1.00;;;;;;;16.08;45.92;99490.94;10338020;28;20054;-62
2022/02/24 15:00:40;;;;;;;;;;;;;;;21.06;34.33;99502.22;10336457;28;21035;-62
2022/02/24 15:05:42;;;;;;;2.17;0.52;;;;;;;18.13;38.60;99492.50;10340109;28;19977;-62
2022/02/24 15:10:43;;;;;;;2.42;0.50;;;;;;;19.09;36.75;99492.09;10341283;28;20060;-62
2022/02/24 15:15:46;;;;;;;1.27;0.60;;;;;;;16.66;40.67;99488.63;10346395;28;20070;-62
2022/02/24 15:20:50;;;;;;;3.10;0.82;;;;;;;14.24;45.78;99505.09;10345370;28;20056;-62
2022/02/24 15:25:51;;;;;;;3.13;0.88;;;;;;;13.09;48.38;99511.69;10344453;28;20038;-60
2022/02/24 15:30:53;;;;;;;1.92;0.70;;;;;;;12.79;50.04;99514.81;10341231;28;20083;-61
2022/02/24 15:35:54;;;;;;;1.98;0.60;;;;;;;12.34;51.28;99493.47;10344518;28;20132;-61
2022/02/24 15:40:56;;;;;;;5.28;0.80;;;;;;;12.49;51.50;99520.44;10343706;28;20588;-62
2022/02/24 15:45:57;;;;;;;4.45;1.25;;;;;;;12.24;49.96;99511.38;10342886;28;20132;-62
2022/02/24 15:50:59;;;;;;;2.05;0.60;;;;;;;12.12;49.44;99515.25;10343481;28;20049;-61
2022/02/24 15:56:00;;;;;;;1.45;0.50;;;;;;;12.03;49.28;99506.34;10337366;28;20041;-64
2022/02/24 16:01:02;;;;;;;2.58;0.73;;;;;;;11.96;48.91;99495.41;10342495;28;20144;-62
2022/02/24 16:06:04;;;;;;;2.13;0.90;;;;;;;11.93;49.14;99493.06;10341665;28;20557;-63
2022/02/24 16:11:05;;;;;;;1.02;0.47;;;;;;;11.77;48.29;99491.03;10339414;28;20792;-62
2022/02/24 16:16:07;;;;;;;0.70;0.20;;;;;;;11.64;48.49;99495.88;10336529;28;20144;-62
2022/02/24 16:21:08;;;;;;;1.30;0.40;;;;;;;11.46;48.29;99459.34;10338743;28;20209;-63
2022/02/24 16:26:10;;;;;;;1.50;0.50;;;;;;;11.53;48.13;99480.94;10343061;28;20071;-63
2022/02/24 16:31:47;;;;;;;2.25;0.90;;;;;;;11.46;48.52;99463.84;10338592;28;20053;-63
2022/02/24 16:36:58;;;;;;;1.75;0.40;;;;;;;11.31;48.06;99475.00;10266011;28;20057;-63
2022/02/24 16:42:04;;;;;;;1.75;0.35;;;;;;;11.25;48.99;99470.25;10309274;28;20077;-64
2022/02/24 16:47:07;;;;;;;3.22;0.57;;;;;;;11.32;48.82;99482.00;10306641;28;20050;-64
2022/02/24 16:52:11;;;;;;;4.10;3.85;;;;;;;11.22;49.09;99449.25;10311918;28;20067;-62
2022/02/24 16:57:13;;;;;;;2.03;0.90;;;;;;;11.10;49.68;99440.59;10312212;28;20056;-62
2022/02/24 17:02:28;;;;;;;1.75;0.85;;;;;;;11.04;49.58;99440.38;10315333;28;20049;-61
2022/02/24 17:07:31;;;;;;;2.47;1.05;;;;;;;10.96;49.91;99439.25;10311590;28;20073;-62
2022/02/24 17:12:33;;;;;;;3.05;0.88;;;;;;;10.92;50.48;99450.34;10301603;28;20604;-63
2022/02/24 17:17:34;;;;;;;2.28;0.73;;;;;;;10.76;50.37;99432.31;10307182;28;20712;-62
2022/02/24 17:22:38;;;;;;;1.70;0.75;;;;;;;10.78;50.26;99449.00;10312208;28;20062;-63
2022/02/24 17:27:40;;;;;;;5.53;1.73;;;;;;;10.79;50.70;99426.69;10310547;28;20050;-62
2022/02/24 17:32:41;;;;;;;2.05;0.50;;;;;;;10.71;50.53;99430.09;10307885;28;20135;-63
2022/02/24 17:37:44;;;;;;;1.02;0.40;;;;;;;10.83;50.46;99452.06;10310410;28;20049;-62
2022/02/24 17:42:45;;;;;;;2.58;0.50;;;;;;;10.87;50.54;99466.75;10306975;28;20758;-62
2022/02/24 17:47:47;;;;;;;1.60;0.40;;;;;;;10.95;50.20;99501.47;10305237;28;20060;-63
2022/02/24 17:52:48;;;;;;;1.70;0.55;;;;;;;11.00;50.21;99588.09;10308686;28;20053;-63
2022/02/24 17:57:50;;;;;;;2.47;0.50;;;;;;;10.23;50.29;99681.84;10309722;28;20491;-63
2022/02/24 18:02:51;;;;;;;32.90;1.80;;;;;;;8.42;56.15;99735.91;10300534;28;20050;-60
2022/02/24 18:07:53;;;;;;;0.60;0.20;;;;;;;6.45;63.75;99750.72;10310950;28;20607;-64
2022/02/24 18:12:55;;;;;;;0.08;0.00;;;;;;;5.42;68.59;99779.72;10319515;28;20061;-62
2022/02/24 18:17:56;;;;;;;0.30;0.00;;;;;;;5.48;70.50;99806.59;10313545;28;20054;-62
2022/02/24 18:22:59;;;;;;;0.08;0.00;;;;;;;5.62;70.43;99813.56;10304979;28;20057;-63
2022/02/24 18:28:00;;;;;;;1.05;0.10;;;;;;;5.61;70.07;99838.28;10307835;28;20054;-63
2022/02/24 18:33:02;;;;;;;0.38;0.20;;;;;;;5.64;71.43;99824.91;10307599;28;20684;-62
2022/02/24 18:38:03;;;;;;;1.20;0.10;;;;;;;6.00;70.10;99830.47;10305337;28;20053;-62
2022/02/24 18:43:05;;;;;;;0.40;0.17;;;;;;;6.31;66.81;99850.34;10315759;28;20493;-63
2022/02/24 18:48:07;;;;;;;0.70;0.10;;;;;;;6.29;66.16;99873.41;10312262;28;20050;-65
2022/02/24 18:53:10;;;;;;;0.90;0.10;;;;;;;6.06;66.95;99895.25;10315122;28;20145;-62
2022/02/24 18:58:13;;;;;;;0.68;0.10;;;;;;;6.21;67.86;99902.16;10322660;28;20579;-64
2022/02/24 19:03:14;;;;;;;0.52;0.20;;;;;;;6.18;69.02;99910.28;10311240;28;20056;-62
2022/02/24 19:08:16;;;;;;;0.82;0.63;;;;;;;6.10;70.03;99909.97;10316009;28;20116;-62
2022/02/24 19:13:17;;;;;;;0.40;0.13;;;;;;;5.95;69.21;99907.38;10315999;28;20056;-63
2022/02/24 19:18:19;;;;;;;0.50;0.20;;;;;;;5.97;70.16;99925.78;10322570;28;20152;-62
2022/02/24 19:23:22;;;;;;;0.30;0.10;;;;;;;6.24;68.32;99923.09;10313040;28;20046;-60
2022/02/24 19:28:23;;;;;;;0.47;0.20;;;;;;;6.28;68.31;99921.94;10317332;28;20070;-60
2022/02/24 19:33:25;;;;;;;0.20;0.20;;;;;;;6.35;68.36;99903.84;10329212;28;20062;-60
2022/02/24 19:38:26;;;;;;;0.85;0.20;;;;;;;6.41;67.86;99918.44;10317992;28;20585;-61
2022/02/24 19:43:28;;;;;;;1.10;0.40;;;;;;;6.48;67.98;99914.44;10314100;28;20069;-62
2022/02/24 19:48:29;;;;;;;1.17;0.20;;;;;;;6.65;65.09;99947.63;10315808;28;20058;-62
2022/02/24 19:53:31;;;;;;;2.22;0.22;;;;;;;6.72;66.55;99949.78;10316997;28;20057;-61
2022/02/24 19:58:33;;;;;;;1.45;0.82;;;;;;;6.67;65.23;99951.88;10311093;28;20054;-59
2022/02/24 20:03:34;;;;;;;2.40;0.60;;;;;;;6.65;66.99;99987.31;10311950;28;20052;-60
2022/02/24 20:08:36;;;;;;;1.15;0.40;;;;;;;6.41;66.13;99992.47;10313233;28;20848;-61
2022/02/24 20:13:37;;;;;;;0.90;0.50;;;;;;;6.40;66.81;99985.50;10315715;28;20073;-60
2022/02/24 20:18:41;;;;;;;1.25;0.43;;;;;;;6.30;68.00;99970.25;10312265;28;20484;-61
2022/02/24 20:23:44;;;;;;;1.05;0.80;;;;;;;6.36;67.87;99956.63;10314968;28;20132;-62
2022/02/24 20:28:46;;;;;;;1.83;1.45;;;;;;;6.20;68.02;99955.97;10311179;28;20057;-61
2022/02/24 20:33:47;;;;;;;2.97;1.92;;;;;;;6.03;68.96;99964.16;10311421;28;20057;-60
2022/02/24 20:38:49;;;;;;;1.65;0.73;;;;;;;5.93;69.66;99988.53;10305068;28;20049;-61
2022/02/24 20:43:50;;;;;;;1.80;0.60;;;;;;;5.78;70.56;99992.16;10310739;28;20077;-61
2022/02/24 20:48:52;;;;;;;1.98;0.75;;;;;;;6.01;70.06;100017.97;10307406;28;20121;-60
2022/02/24 20:53:53;;;;;;;1.92;0.40;;;;;;;5.99;69.30;100025.16;10314812;28;20315;-60
2022/02/24 20:58:55;;;;;;;2.88;0.52;;;;;;;5.75;70.73;100024.03;10310463;28;20475;-60
2022/02/24 21:03:56;;;;;;;2.70;0.80;;;;;;;5.89;70.60;100034.59;10310611;28;20661;-60
2022/02/24 21:09:04;;;;;;;1.45;0.80;;;;;;;5.87;70.98;100036.47;10308556;28;20568;-64
2022/02/24 21:14:06;;;;;;;1.25;0.52;;;;;;;5.65;71.79;100037.84;10316437;28;20166;-66
2022/02/24 21:19:07;;;;;;;1.35;0.60;;;;;;;5.66;72.73;100031.63;10318342;28;20038;-65
2022/02/24 21:24:09;;;;;;;1.88;0.40;;;;;;;5.67;73.05;100037.75;10316406;28;20816;-66
2022/02/24 21:29:11;;;;;;;1.02;0.40;;;;;;;5.69;73.19;100053.47;10308976;28;20125;-65
2022/02/24 21:34:13;;;;;;;0.95;0.43;;;;;;;5.63;72.92;100055.59;10317966;28;20050;-65
2022/02/24 21:39:14;;;;;;;1.67;0.30;;;;;;;5.55;73.14;100060.47;10314310;28;20546;-66
2022/02/24 21:44:16;;;;;;;1.08;0.40;;;;;;;5.45;72.96;100077.84;10308547;28;20065;-65
2022/02/24 21:49:18;;;;;;;1.23;0.50;;;;;;;5.51;73.54;100108.28;10314016;28;20046;-65
2022/02/24 21:54:19;;;;;;;1.23;0.50;;;;;;;5.31;72.94;100092.75;10311455;28;20098;-65
2022/02/24 21:59:21;;;;;;;0.95;0.30;;;;;;;5.24;73.55;100107.25;10311699;28;20062;-65
2022/02/24 22:04:22;;;;;;;1.92;0.82;;;;;;;5.26;74.31;100123.84;10313963;28;20181;-66
2022/02/24 22:09:24;;;;;;;1.80;0.30;;;;;;;5.21;72.02;100123.28;10315451;28;20765;-65
2022/02/24 22:14:45;;;;;;;2.03;0.43;;;;;;;5.48;71.54;100151.59;10327824;28;20050;-65
2022/02/24 22:20:03;;;;;;;1.23;0.22;;;;;;;5.53;70.92;100143.41;10359389;28;20048;-64
2022/02/24 22:25:05;;;;;;;1.30;0.45;;;;;;;5.62;69.71;100163.94;10359105;28;20050;-65
2022/02/24 22:30:07;;;;;;;1.80;0.43;;;;;;;5.63;69.28;100169.13;10363988;28;20128;-64
2022/02/24 22:35:09;;;;;;;2.38;0.30;;;;;;;5.70;69.15;100195.16;10321056;28;20143;-65
2022/02/24 22:40:10;;;;;;;0.70;0.30;;;;;;;5.63;68.97;100184.13;10320475;28;20050;-62
2022/02/24 22:45:12;;;;;;;1.85;0.35;;;;;;;5.69;69.44;100206.66;10318369;28;20129;-65
2022/02/24 22:50:13;;;;;;;3.97;1.30;;;;;;;5.62;69.22;100204.41;10317475;28;20052;-65
2022/02/24 22:55:15;;;;;;;0.55;0.28;;;;;;;5.54;69.71;100219.88;10319988;28;20062;-65
2022/02/24 23:00:51;;;;;;;2.70;0.70;;;;;;;5.78;69.37;100222.81;10318872;28;20613;-65
2022/02/24 23:05:53;;;;;;;1.67;0.50;;;;;;;5.61;68.24;100231.75;10316448;28;20054;-65
2022/02/24 23:10:55;;;;;;;1.60;0.52;;;;;;;5.52;68.56;100216.47;10317899;28;20504;-65
2022/02/24 23:15:58;;;;;;;2.88;0.80;;;;;;;5.60;68.20;100245.03;10319126;28;20128;-64
2022/02/24 23:21:01;;;;;;;1.25;0.40;;;;;;;5.61;67.78;100257.31;10333295;28;20128;-65
2022/02/24 23:26:05;;;;;;;;;;;;;;;5.51;65.74;100272.88;10319088;28;20103;-64
2022/02/24 23:31:07;;;;;;;3.63;0.70;;;;;;;5.51;66.26;100294.00;10319478;28;20016;-65
2022/02/24 23:36:08;;;;;;;1.77;0.50;;;;;;;5.18;67.34;100291.50;10315891;28;20057;-65